Time;durP1;ratioP1;P1;durP2;ratioP2;P2;SDS_P1;SDS_P2;PMS_P1;PMS_P2;Temp;Humidity;BMP_temperature;BMP_pressure;BME280_temperature;BME280_humidity;BME280_pressure;Samples;Min_cycle;Max_cycle;Signal;HPM_P1;HPM_P2
2021/07/23 00:00:17;;;;;;;8.23;6.30;;;;;;;;;;3566733;40;20464;-70
2021/07/23 00:02:43;;;;;;;6.90;6.07;;;;;;;;;;3566605;40;20385;-70
2021/07/23 00:05:10;;;;;;;8.60;6.83;;;;;;;;;;3566705;40;20386;-70
2021/07/23 00:07:36;;;;;;;7.15;6.45;;;;;;;;;;3567084;40;20400;-70
2021/07/23 00:10:03;;;;;;;7.10;5.90;;;;;;;;;;3567343;40;20833;-70
2021/07/23 00:12:29;;;;;;;7.70;6.35;;;;;;;;;;3566340;40;20769;-70
2021/07/23 00:14:55;;;;;;;11.00;6.60;;;;;;;;;;3566463;40;20773;-70
2021/07/23 00:17:23;;;;;;;7.40;6.63;;;;;;;;;;3566638;40;20405;-70
2021/07/23 00:19:49;;;;;;;9.50;6.22;;;;;;;;;;3566544;40;20386;-70
2021/07/23 00:22:15;;;;;;;8.13;6.15;;;;;;;;;;3557274;40;20397;-71
2021/07/23 00:24:41;;;;;;;9.75;7.03;;;;;;;;;;3566762;40;20381;-70
2021/07/23 00:27:07;;;;;;;7.82;6.22;;;;;;;;;;3567199;40;20397;-71
2021/07/23 00:29:34;;;;;;;7.47;6.68;;;;;;;;;;3561459;40;20407;-70
2021/07/23 00:32:00;;;;;;;6.90;6.20;;;;;;;;;;3561815;40;20414;-71
2021/07/23 00:34:27;;;;;;;9.38;6.78;;;;;;;;;;3568967;40;20368;-71
2021/07/23 00:36:54;;;;;;;7.38;5.80;;;;;;;;;;3556958;40;20499;-71
2021/07/23 00:39:20;;;;;;;6.95;6.03;;;;;;;;;;3556987;40;20945;-70
2021/07/23 00:41:46;;;;;;;7.97;6.40;;;;;;;;;;3557054;40;20390;-70
2021/07/23 00:44:12;;;;;;;8.10;6.32;;;;;;;;;;3556774;40;20405;-71
2021/07/23 00:46:38;;;;;;;7.45;6.25;;;;;;;;;;3567108;40;20409;-70
2021/07/23 00:49:04;;;;;;;10.07;6.85;;;;;;;;;;3570498;40;20375;-70
2021/07/23 00:51:32;;;;;;;6.75;5.82;;;;;;;;;;3555567;40;20399;-71
2021/07/23 00:53:58;;;;;;;7.78;6.10;;;;;;;;;;3556904;40;20421;-70
2021/07/23 00:56:26;;;;;;;9.48;6.57;;;;;;;;;;3557090;40;20786;-71
2021/07/23 00:58:52;;;;;;;11.07;6.90;;;;;;;;;;3567895;40;20384;-70
2021/07/23 01:01:19;;;;;;;10.60;7.82;;;;;;;;;;3601891;22;20441;-69
2021/07/23 01:03:45;;;;;;;8.80;6.18;;;;;;;;;;3566041;40;20456;-69
2021/07/23 01:06:11;;;;;;;8.15;7.18;;;;;;;;;;3565300;40;20386;-70
2021/07/23 01:08:40;;;;;;;10.25;7.00;;;;;;;;;;3556783;40;20397;-70
2021/07/23 01:11:06;;;;;;;11.00;7.60;;;;;;;;;;3566000;40;20773;-69
2021/07/23 01:13:32;;;;;;;12.10;8.23;;;;;;;;;;3565926;40;20389;-69
2021/07/23 01:15:58;;;;;;;11.65;8.20;;;;;;;;;;3556737;40;20473;-69
2021/07/23 01:18:24;;;;;;;11.87;7.60;;;;;;;;;;3565922;40;20576;-69
2021/07/23 01:20:52;;;;;;;8.57;7.60;;;;;;;;;;3565851;40;20421;-69
2021/07/23 01:23:26;;;;;;;11.25;7.45;;;;;;;;;;3565955;40;20378;-68
2021/07/23 01:25:53;;;;;;;10.38;8.15;;;;;;;;;;3565991;40;20385;-69
2021/07/23 01:28:19;;;;;;;10.02;7.78;;;;;;;;;;3565747;40;20389;-69
2021/07/23 01:30:45;;;;;;;10.23;7.47;;;;;;;;;;3557755;40;20385;-69
2021/07/23 01:33:12;;;;;;;11.38;7.78;;;;;;;;;;3565610;40;20406;-69
2021/07/23 01:35:38;;;;;;;11.50;7.63;;;;;;;;;;3565754;40;20392;-69
2021/07/23 01:38:06;;;;;;;9.55;6.82;;;;;;;;;;3564195;40;20397;-70
2021/07/23 01:40:34;;;;;;;11.50;7.57;;;;;;;;;;3565913;40;20412;-70
2021/07/23 01:43:00;;;;;;;10.20;6.83;;;;;;;;;;3565910;40;20655;-70
2021/07/23 01:45:26;;;;;;;11.70;7.82;;;;;;;;;;3565272;40;20648;-70
2021/07/23 01:47:53;;;;;;;12.23;7.20;;;;;;;;;;3556006;40;20393;-70
2021/07/23 01:50:19;;;;;;;10.70;7.70;;;;;;;;;;3564300;40;20382;-70
2021/07/23 01:52:45;;;;;;;8.48;6.55;;;;;;;;;;3565602;40;20417;-70
2021/07/23 01:55:12;;;;;;;11.13;7.50;;;;;;;;;;3565676;40;20385;-69
2021/07/23 01:57:39;;;;;;;9.80;7.47;;;;;;;;;;3565631;40;20437;-69
2021/07/23 02:00:06;;;;;;;10.00;6.78;;;;;;;;;;3565323;40;20386;-70
2021/07/23 02:02:34;;;;;;;9.68;6.75;;;;;;;;;;3556427;40;20417;-70
2021/07/23 02:05:00;;;;;;;9.85;7.00;;;;;;;;;;3546656;40;20391;-69
2021/07/23 02:07:26;;;;;;;8.20;6.53;;;;;;;;;;3555705;40;20525;-70
2021/07/23 02:09:52;;;;;;;9.45;7.15;;;;;;;;;;3546323;40;20665;-69
2021/07/23 02:12:18;;;;;;;8.80;6.70;;;;;;;;;;3555796;40;20398;-69
2021/07/23 02:14:46;;;;;;;10.52;6.95;;;;;;;;;;3555470;40;20383;-70
2021/07/23 02:17:15;;;;;;;9.80;7.05;;;;;;;;;;3555630;40;20419;-69
2021/07/23 02:19:41;;;;;;;9.02;6.57;;;;;;;;;;3556079;40;20407;-69
2021/07/23 02:22:07;;;;;;;6.88;6.07;;;;;;;;;;3556139;40;20447;-69
2021/07/23 02:24:33;;;;;;;7.97;6.03;;;26.60;99.90;;;;;;3547096;40;20699;-65
2021/07/23 02:27:00;;;;;;;9.23;6.72;;;;;;;;;;3547860;40;20399;-65
2021/07/23 02:29:26;;;;;;;8.10;6.75;;;;;;;;;;3556304;40;20411;-65
2021/07/23 02:31:53;;;;;;;8.70;6.70;;;;;;;;;;3557205;40;20394;-65
2021/07/23 02:34:19;;;;;;;10.20;6.50;;;;;;;;;;3555560;40;20400;-67
2021/07/23 02:36:45;;;;;;;9.87;7.00;;;;;;;;;;3558311;40;20405;-65
2021/07/23 02:39:12;;;;;;;9.93;6.87;;;;;;;;;;3558060;40;20480;-65
2021/07/23 02:41:38;;;;;;;8.05;6.43;;;;;;;;;;3557386;40;20431;-69
2021/07/23 02:44:04;;;;;;;7.90;6.18;;;;;;;;;;3553946;40;20372;-69
2021/07/23 02:46:30;;;;;;;7.53;6.10;;;;;;;;;;3557963;40;20379;-69
2021/07/23 02:48:58;;;;;;;11.15;6.80;;;;;;;;;;3555221;40;20431;-69
2021/07/23 02:51:24;;;;;;;9.25;6.90;;;;;;;;;;3557483;40;20525;-69
2021/07/23 02:53:50;;;;;;;7.00;6.30;;;;;;;;;;3557149;40;20438;-69
2021/07/23 02:56:17;;;;;;;9.23;7.32;;;;;;;;;;3556992;40;20379;-69
2021/07/23 02:58:46;;;;;;;6.95;5.85;;;;;;;;;;3547810;40;20413;-70
2021/07/23 03:01:12;;;;;;;8.43;6.53;;;;;;;;;;3558810;40;20422;-69
2021/07/23 03:03:38;;;;;;;11.15;6.50;;;;;;;;;;3544075;40;20413;-69
2021/07/23 03:06:06;;;;;;;10.90;7.65;;;;;;;;;;3553036;40;20386;-69
2021/07/23 03:08:32;;;;;;;7.32;6.43;;;;;;;;;;3555528;40;20461;-69
2021/07/23 03:10:58;;;;;;;8.40;7.22;;;;;;;;;;3548357;40;20394;-69
2021/07/23 03:13:25;;;;;;;8.43;6.85;;;;;;;;;;3561122;40;20711;-69
2021/07/23 03:15:51;;;;;;;12.20;8.55;;;;;;;;;;3560091;40;20493;-69
2021/07/23 03:18:17;;;;;;;11.57;7.72;;;;;;;;;;3551575;40;20411;-69
2021/07/23 03:20:44;;;;;;;10.55;7.95;;;;;;;;;;3553145;40;20397;-69
2021/07/23 03:23:11;;;;;;;9.07;7.22;;;;;;;;;;3556868;40;20511;-69
2021/07/23 03:25:37;;;;;;;9.77;7.55;;;;;;;;;;3559576;40;20808;-69
2021/07/23 03:28:04;;;;;;;10.80;7.55;;;;;;;;;;3561484;40;20378;-70
2021/07/23 03:30:32;;;;;;;7.33;6.50;;;;;;;;;;3563362;40;20401;-69
2021/07/23 03:32:59;;;;;;;9.18;6.88;;;;;;;;;;3559744;40;20743;-69
2021/07/23 03:35:25;;;;;;;8.68;6.75;;;;;;;;;;3557307;40;20378;-69
2021/07/23 03:37:51;;;;;;;8.70;6.85;;;;;;;;;;3559834;40;20403;-70
2021/07/23 03:40:19;;;;;;;11.00;7.72;;;;;;;;;;3555753;40;20738;-69
2021/07/23 03:42:45;;;;;;;8.77;7.57;;;;;;;;;;3556807;40;20493;-69
2021/07/23 03:45:11;;;;;;;9.38;7.15;;;;;;;;;;3557953;40;20767;-69
2021/07/23 03:47:37;;;;;;;7.80;6.43;;;;;;;;;;3559637;40;20393;-69
2021/07/23 03:50:04;;;;;;;9.55;7.10;;;;;;;;;;3557387;40;20398;-69
2021/07/23 03:52:30;;;;;;;8.27;6.35;;;;;;;;;;3558626;40;20405;-69
2021/07/23 03:54:56;;;;;;;9.32;7.60;;;;;;;;;;3561121;40;20858;-69
2021/07/23 03:57:24;;;;;;;9.20;6.32;;;;;;;;;;3557091;40;20390;-69
2021/07/23 03:59:50;;;;;;;11.98;7.40;;;;;;;;;;3562036;40;20402;-69
2021/07/23 04:02:16;;;;;;;9.13;7.93;;;;;;;;;;3546089;40;20438;-69
2021/07/23 04:04:42;;;;;;;10.90;7.22;;;;;;;;;;3555095;40;20392;-69
2021/07/23 04:07:08;;;;;;;11.93;7.82;;;;;;;;;;3557772;40;20902;-69
2021/07/23 04:09:35;;;;;;;8.33;7.10;;;;;;;;;;3553513;40;20408;-69
2021/07/23 04:12:03;;;;;;;10.40;7.40;;;;;;;;;;3544796;40;20740;-69
2021/07/23 04:14:30;;;;;;;31.70;9.63;;;;;;;;;;3556225;40;20401;-69
2021/07/23 04:16:57;;;;;;;11.98;8.35;;;;;;;;;;3556515;40;20411;-69
2021/07/23 04:19:23;;;;;;;14.52;7.82;;;;;;;;;;3556252;40;20403;-69
2021/07/23 04:21:49;;;;;;;16.27;8.57;;;;;;;;;;3556473;40;20382;-70
2021/07/23 04:24:15;;;;;;;12.40;8.02;;;;;;;;;;3556401;40;20509;-69
2021/07/23 04:26:41;;;;;;;9.63;7.10;;;;;;;;;;3555319;40;20797;-69
2021/07/23 04:29:08;;;;;;;11.23;7.80;;;;;;;;;;3556406;40;20379;-69
2021/07/23 04:31:35;;;;;;;15.85;8.18;;;;;;;;;;3556398;40;20768;-70
2021/07/23 04:34:01;;;;;;;16.75;8.25;;;;;;;;;;3556180;40;20403;-69
2021/07/23 04:36:28;;;;;;;12.20;7.93;;;;;;;;;;3546177;40;20634;-69
2021/07/23 04:38:54;;;;;;;9.95;7.35;;;;;;;;;;3556136;40;20395;-69
2021/07/23 04:41:21;;;;;;;10.20;7.03;;;;;;;;;;3555197;40;20664;-70
2021/07/23 04:43:47;;;;;;;17.20;8.35;;;;;;;;;;3556383;40;20692;-69
2021/07/23 04:46:13;;;;;;;8.52;6.50;;;;;;;;;;3555968;40;20379;-69
2021/07/23 04:48:41;;;;;;;15.63;7.78;;;;;;;;;;3553594;40;20391;-69
2021/07/23 04:51:07;;;;;;;9.90;7.68;;;;;;;;;;3545213;40;20644;-69
2021/07/23 04:53:33;;;;;;;10.52;7.10;;;;;;;;;;3547320;40;20391;-70
2021/07/23 04:56:01;;;;;;;10.38;7.20;;;;;;;;;;3545197;40;20778;-69
2021/07/23 04:58:27;;;;;;;13.77;8.18;;;;;;;;;;3555945;40;20395;-69
2021/07/23 05:00:54;;;;;;;9.65;7.40;;;;;;;;;;3556289;40;20407;-69
2021/07/23 05:03:20;;;;;;;10.68;8.02;;;;;;;;;;3565872;40;20378;-69
2021/07/23 05:05:48;;;;;;;8.20;7.10;;;;;;;;;;3562908;40;20406;-68
2021/07/23 05:08:14;;;;;;;10.60;8.20;;;;;;;;;;3561598;40;20432;-69
2021/07/23 05:10:42;;;;;;;9.30;7.05;;;;;;;;;;3555977;40;20394;-69
2021/07/23 05:13:08;;;;;;;9.23;8.10;;;;;;;;;;3563714;40;20429;-69
2021/07/23 05:15:35;;;;;;;8.40;7.22;;;;;;;;;;3558975;40;20371;-69
2021/07/23 05:18:01;;;;;;;10.32;7.53;;;;;;;;;;3559008;40;20464;-69
2021/07/23 05:20:27;;;;;;;8.98;6.95;;;;;;;;;;3558389;40;20779;-69
2021/07/23 05:22:55;;;;;;;17.52;8.10;;;;;;;;;;3553527;40;20382;-70
2021/07/23 05:25:21;;;;;;;10.88;8.02;;;;;;;;;;3562583;40;20389;-70
2021/07/23 05:27:48;;;;;;;12.93;8.00;;;;;;;;;;3563208;40;20373;-69
2021/07/23 05:30:15;;;;;;;10.07;8.00;;;;;;;;;;3564510;40;20373;-69
2021/07/23 05:32:41;;;;;;;11.40;7.38;;;;;;;;;;3563978;40;20379;-69
2021/07/23 05:35:08;;;;;;;11.60;8.07;;;;;;;;;;3564576;40;20385;-69
2021/07/23 05:37:34;;;;;;;12.75;8.95;;;;;;;;;;3556403;40;20493;-69
2021/07/23 05:40:02;;;;;;;11.45;8.45;;;;;;;;;;3562838;40;20400;-68
2021/07/23 05:42:28;;;;;;;12.65;8.00;;;;;;;;;;3560972;40;20401;-68
2021/07/23 05:44:55;;;;;;;11.70;8.20;;;;;;;;;;3552260;40;20401;-69
2021/07/23 05:47:21;;;;;;;13.15;9.07;;;;;;;;;;3559518;40;20785;-67
2021/07/23 05:49:47;;;;;;;10.48;8.73;;;;;;;;;;3554850;40;20397;-68
2021/07/23 05:52:13;;;;;;;11.85;8.75;;;;;;;;;;3566575;40;20405;-69
2021/07/23 05:54:39;;;;;;;12.43;8.45;;;;;;;;;;3565212;40;20388;-68
2021/07/23 05:57:07;;;;;;;9.53;7.10;;;;;;;;;;3566040;40;20371;-69
2021/07/23 05:59:33;;;;;;;10.27;7.50;;;;;;;;;;3565043;40;20416;-68
2021/07/23 06:01:59;;;;;;;12.75;8.30;;;;;;;;;;3546657;40;20680;-69
2021/07/23 06:04:26;;;;;;;10.73;8.18;;;;;;;;;;3561855;40;20396;-69
2021/07/23 06:06:52;;;;;;;8.35;6.78;;;;;;;;;;3565019;40;20413;-68
2021/07/23 06:09:18;;;;;;;9.23;7.68;;;;;;;;;;3567347;40;20377;-68
2021/07/23 06:11:44;;;;;;;14.43;8.70;;;;;;;;;;3558071;40;20390;-68
2021/07/23 06:14:12;;;;;;;7.73;6.63;;;;;;;;;;3562937;40;20401;-68
2021/07/23 06:16:41;;;;;;;8.48;7.45;;;;;;;;;;3564370;40;20389;-69
2021/07/23 06:19:07;;;;;;;8.48;7.10;;;;;;;;;;3557569;40;20412;-68
2021/07/23 06:21:33;;;;;;;10.18;6.93;;;;;;;;;;3565527;40;20390;-68
2021/07/23 06:23:59;;;;;;;7.50;6.57;;;;;;;;;;3553770;40;20532;-68
2021/07/23 06:26:25;;;;;;;7.72;6.18;;;;;;;;;;3562386;40;20424;-68
2021/07/23 06:28:51;;;;;;;9.23;5.95;;;;;;;;;;3556921;40;20686;-68
2021/07/23 06:31:19;;;;;;;8.90;6.43;;;;;;;;;;3562226;40;20637;-68
2021/07/23 06:33:45;;;;;;;7.10;6.15;;;;;;;;;;3565966;40;20381;-68
2021/07/23 06:36:11;;;;;;;9.13;6.47;;;;;;;;;;3556540;40;20397;-68
2021/07/23 06:38:37;;;;;;;7.40;6.20;;;;;;;;;;3564801;40;20776;-68
2021/07/23 06:41:05;;;;;;;6.13;5.53;;;;;;;;;;3562621;40;20506;-67
2021/07/23 06:43:31;;;;;;;7.35;6.10;;;;;;;;;;3555856;40;20404;-68
2021/07/23 06:45:58;;;;;;;7.90;6.40;;;;;;;;;;3557727;40;20392;-67
2021/07/23 06:48:25;;;;;;;6.50;5.38;;;;;;;;;;3558139;40;20401;-68
2021/07/23 06:50:51;;;;;;;7.55;6.18;;;;;;;;;;3564774;40;20397;-69
2021/07/23 06:53:18;;;;;;;10.30;6.38;;;;;;;;;;3566039;40;20374;-68
2021/07/23 06:55:44;;;;;;;8.02;6.28;;;;;;;;;;3565577;40;20397;-68
2021/07/23 06:58:11;;;;;;;9.45;6.00;;;;;;;;;;3560667;40;20391;-67
2021/07/23 07:00:37;;;;;;;7.50;6.20;;;;;;;;;;3562903;40;20415;-68
2021/07/23 07:03:06;;;;;;;10.90;6.00;;;;;;;;;;3564984;40;20401;-68
2021/07/23 07:05:33;;;;;;;7.70;5.80;;;;;;;;;;3565820;40;20666;-68
2021/07/23 07:08:00;;;;;;;9.10;6.00;;;24.20;99.80;;;;;;3557312;40;20490;-68
2021/07/23 07:10:26;;;;;;;9.52;6.32;;;;;;;;;;3563303;40;20725;-68
2021/07/23 07:12:55;;;;;;;6.90;5.90;;;;;;;;;;3560472;40;20465;-68
2021/07/23 07:15:21;;;;;;;8.53;5.83;;;;;;;;;;3567000;40;20385;-68
2021/07/23 07:17:47;;;;;;;7.37;5.33;;;;;;;;;;3563638;40;20390;-68
2021/07/23 07:20:14;;;;;;;6.23;5.63;;;;;;;;;;3553846;40;20397;-68
2021/07/23 07:22:42;;;;;;;6.32;5.57;;;;;;;;;;3566325;40;20394;-68
2021/07/23 07:25:09;;;;;;;6.55;5.70;;;;;;;;;;3566566;40;20397;-69
2021/07/23 07:27:35;;;;;;;6.65;5.65;;;;;;;;;;3559472;40;20409;-68
2021/07/23 07:30:01;;;;;;;7.07;6.28;;;;;;;;;;3564673;40;20389;-68
2021/07/23 07:32:27;;;;;;;7.97;6.18;;;;;;;;;;3563087;40;20392;-68
2021/07/23 07:34:54;;;;;;;8.07;5.78;;;;;;;;;;3567671;40;20464;-68
2021/07/23 07:37:20;;;;;;;5.90;5.18;;;;;;;;;;3565124;40;20810;-69
2021/07/23 07:39:47;;;;;;;7.47;5.32;;;;;;;;;;3556036;40;20420;-69
2021/07/23 07:42:16;;;;;;;11.27;5.35;;;;;;;;;;3554502;40;20444;-68
2021/07/23 07:44:42;;;;;;;6.28;5.38;;;;;;;;;;3553618;40;20441;-69
2021/07/23 07:47:08;;;;;;;10.70;5.90;;;;;;;;;;3565164;40;20670;-68
2021/07/23 07:49:35;;;;;;;8.18;5.50;;;;;;;;;;3563459;40;20390;-69
2021/07/23 07:52:01;;;;;;;5.72;5.05;;;;;;;;;;3561067;40;20478;-69
2021/07/23 07:54:28;;;;;;;9.00;5.68;;;;;;;;;;3560969;40;20407;-68
2021/07/23 07:56:57;;;;;;;6.75;5.00;;;;;;;;;;3564570;40;20710;-68
2021/07/23 07:59:24;;;;;;;8.52;5.88;;;;;;;;;;3557362;40;20526;-69
2021/07/23 08:01:50;;;;;;;6.07;5.30;;;;;;;;;;3566205;40;20710;-68
2021/07/23 08:04:16;;;;;;;6.63;5.23;;;;;;;;;;3561267;40;20463;-68
2021/07/23 08:06:44;;;;;;;8.23;5.70;;;;;;;;;;3564114;40;20483;-68
2021/07/23 08:09:13;;;;;;;5.90;5.30;;;;;;;;;;3561468;40;20394;-68
2021/07/23 08:11:39;;;;;;;8.70;5.65;;;;;;;;;;3562608;40;20749;-68
2021/07/23 08:14:07;;;;;;;8.88;5.03;;;;;;;;;;3561910;40;20382;-68
2021/07/23 08:16:33;;;;;;;7.18;5.10;;;;;;;;;;3565293;40;20397;-69
2021/07/23 08:19:00;;;;;;;5.63;4.60;;;;;;;;;;3566420;40;20412;-69
2021/07/23 08:21:26;;;;;;;5.72;5.05;;;;;;;;;;3557368;40;20402;-69
2021/07/23 08:23:52;;;;;;;6.82;5.22;;;;;;;;;;3555893;40;20409;-68
2021/07/23 08:26:19;;;;;;;7.95;5.28;;;;;;;;;;3557084;40;20482;-68
2021/07/23 08:28:45;;;;;;;6.28;5.40;;;;;;;;;;3566098;40;20388;-68
2021/07/23 08:31:12;;;;;;;6.75;4.90;;;;;;;;;;3564130;40;20763;-68
2021/07/23 08:33:39;;;;;;;6.57;5.47;;;;;;;;;;3566527;40;20402;-68
2021/07/23 08:36:06;;;;;;;7.68;5.22;;;;;;;;;;3556855;40;20503;-68
2021/07/23 08:38:32;;;;;;;7.43;4.78;;;;;;;;;;3564333;40;20393;-68
2021/07/23 08:40:58;;;;;;;5.80;4.95;;;;;;;;;;3566266;40;20390;-68
2021/07/23 08:43:24;;;;;;;9.25;5.10;;;;;;;;;;3565674;40;20373;-69
2021/07/23 08:45:51;;;;;;;6.10;5.05;;;;;;;;;;3560402;40;20491;-68
2021/07/23 08:48:18;;;;;;;6.03;4.93;;;;;;;;;;3563564;40;20398;-67
2021/07/23 08:50:45;;;;;;;7.40;4.80;;;;;;;;;;3561064;40;20661;-68
2021/07/23 08:53:11;;;;;;;6.00;5.10;;;;;;;;;;3563809;40;20386;-68
2021/07/23 08:55:37;;;;;;;5.70;4.63;;;;;;;;;;3564302;40;20378;-68
2021/07/23 08:58:06;;;;;;;6.85;4.80;;;;;;;;;;3556925;40;20385;-68
2021/07/23 09:00:32;;;;;;;6.15;4.85;;;;;;;;;;3564445;40;20439;-68
2021/07/23 09:02:59;;;;;;;6.50;4.55;;;;;;;;;;3563435;40;20746;-68
2021/07/23 09:05:28;;;;;;;6.70;4.53;;;;;;;;;;3555413;40;20401;-68
2021/07/23 09:07:54;;;;;;;6.57;4.97;;;;;;;;;;3564156;40;20382;-68
2021/07/23 09:10:21;;;;;;;5.75;4.60;;;;;;;;;;3565964;40;20385;-68
2021/07/23 09:12:50;;;;;;;6.60;4.50;;;;;;;;;;3554916;40;20391;-68
2021/07/23 09:15:21;;;;;;;6.13;5.23;;;;;;;;;;3560570;40;20402;-68
2021/07/23 09:17:48;;;;;;;6.50;4.70;;;;;;;;;;3565952;40;20366;-68
2021/07/23 09:20:14;;;;;;;6.27;4.83;;;;;;;;;;3565771;40;20448;-68
2021/07/23 09:22:46;;;;;;;4.90;4.40;;;;;;;;;;3564983;40;20643;-68
2021/07/23 09:25:12;;;;;;;6.50;4.53;;;;;;;;;;3562152;40;20631;-68
2021/07/23 09:27:39;;;;;;;6.73;4.70;;;;;;;;;;3557934;40;20478;-68
2021/07/23 09:30:07;;;;;;;5.00;4.50;;;;;;;;;;3569526;40;20461;-68
2021/07/23 09:32:33;;;;;;;6.53;4.80;;;;;;;;;;3569395;40;20378;-69
2021/07/23 09:35:08;;;;;;;8.93;5.03;;;;;;;;;;3563816;40;20393;-68
2021/07/23 09:37:34;;;;;;;5.90;5.30;;;;;;;;;;3567452;40;20377;-69
2021/07/23 09:40:02;;;;;;;27.50;6.72;;;;;;;;;;3566285;40;20421;-68
2021/07/23 09:42:28;;;;;;;12.37;5.67;;;;;;;;;;3567207;40;20406;-68
2021/07/23 09:45:01;;;;;;;5.83;4.47;;;;;;;;;;3567603;40;20483;-68
2021/07/23 09:47:27;;;;;;;6.30;4.65;;;;;;;;;;3574414;40;20389;-67
2021/07/23 09:49:54;;;;;;;5.28;4.78;;;;;;;;;;3569326;40;20793;-68
2021/07/23 09:52:22;;;;;;;6.95;5.00;;;;;;;;;;3567569;40;20380;-68
2021/07/23 09:54:48;;;;;;;4.43;4.03;;;;;;;;;;3566066;40;20703;-68
2021/07/23 09:57:17;;;;;;;6.25;4.90;;;;;;;;;;3566834;40;20389;-68
2021/07/23 09:59:46;;;;;;;7.10;4.80;;;;;;;;;;3567359;40;20410;-68
2021/07/23 10:02:17;;;;;;;7.32;5.40;;;;;;;;;;3573114;40;20689;-68
2021/07/23 10:04:53;;;;;;;6.80;4.65;;;;;;;;;;3575162;40;20674;-69
2021/07/23 10:07:20;;;;;;;6.68;5.28;;;;;;;;;;3577079;40;20793;-68
2021/07/23 10:09:47;;;;;;;6.22;5.10;;;;;;;;;;3576696;40;20797;-68
2021/07/23 10:12:15;;;;;;;20.35;5.95;;;;;;;;;;3576454;40;20396;-68
2021/07/23 10:14:46;;;;;;;9.38;5.03;;;;;;;;;;3577512;40;20391;-69
2021/07/23 10:17:12;;;;;;;7.28;5.00;;;;;;;;;;3577406;40;20392;-68
2021/07/23 10:19:39;;;;;;;6.28;4.75;;;;;;;;;;3577301;40;20431;-68
2021/07/23 10:22:05;;;;;;;6.55;5.07;;;;;;;;;;3577564;40;20375;-68
2021/07/23 10:24:35;;;;;;;5.20;4.70;;;;;;;;;;3576071;40;20403;-69
2021/07/23 10:27:04;;;;;;;8.27;4.95;;;;;;;;;;3577468;40;20379;-68
2021/07/23 10:29:45;;;;;;;6.55;4.20;;;;;;;;;;3577193;40;20380;-68
2021/07/23 10:32:29;;;;;;;5.60;4.88;;;;;;;;;;3577189;40;20391;-68
2021/07/23 10:34:57;;;;;;;5.30;4.78;;;;;;;;;;3577297;40;20376;-68
2021/07/23 10:37:38;;;;;;;7.80;5.03;;;;;;;;;;3576986;40;20393;-68
2021/07/23 10:40:13;;;;;;;6.45;4.60;;;;;;;;;;3576304;40;20411;-68
2021/07/23 10:42:40;;;;;;;5.07;4.50;;;;;;;;;;3576852;40;20384;-68
2021/07/23 10:45:11;;;;;;;5.88;4.90;;;;;;;;;;3576763;40;20392;-68
2021/07/23 10:47:38;;;;;;;5.22;4.72;;;;;;;;;;3576917;40;20432;-68
2021/07/23 10:50:06;;;;;;;5.47;4.83;;;;;;;;;;3575792;40;20768;-68
2021/07/23 10:52:36;;;;;;;6.05;4.80;;;;;;;;;;3575280;40;20580;-68
2021/07/23 10:55:24;;;;;;;6.85;5.03;;;;;;;;;;3575266;40;20619;-68
2021/07/23 10:58:08;;;;;;;7.00;5.28;;;;;;;;;;3571935;40;20398;-68
2021/07/23 11:00:47;;;;;;;7.95;5.07;;;;;;;;;;3544977;40;20479;-68
2021/07/23 11:03:28;;;;;;;6.55;4.70;;;;;;;;;;3544174;40;20389;-68
2021/07/23 11:05:54;;;;;;;7.77;5.00;;;;;;;;;;3543948;40;20397;-68
2021/07/23 11:08:21;;;;;;;6.95;4.97;;;;;;;;;;3536933;40;20416;-68
2021/07/23 11:10:52;;;;;;;6.60;4.75;;;;;;;;;;3544715;40;20389;-68
2021/07/23 11:13:19;;;;;;;8.55;5.10;;;;;;;;;;3565074;40;20425;-68
2021/07/23 11:15:46;;;;;;;8.43;5.70;;;;;;;;;;3576465;40;20384;-68
2021/07/23 11:18:15;;;;;;;7.45;5.15;;;;;;;;;;3575243;40;20782;-68
2021/07/23 11:20:42;;;;;;;5.55;4.65;;;;;;;;;;3573799;40;20731;-68
2021/07/23 11:23:12;;;;;;;7.75;5.07;;;;;;;;;;3566030;40;20387;-68
2021/07/23 11:25:39;;;;;;;7.28;5.20;;;;;;;;;;3576612;40;20387;-68
2021/07/23 11:28:08;;;;;;;6.63;5.57;;;;;;;;;;3575436;40;20380;-68
2021/07/23 11:30:35;;;;;;;5.85;5.20;;;;;;;;;;3576073;40;20379;-68
2021/07/23 11:33:04;;;;;;;7.20;5.25;;;;;;;;;;3561392;40;20408;-68
2021/07/23 11:35:31;;;;;;;6.97;4.70;;;;;;;;;;3576471;40;20392;-69
2021/07/23 11:37:58;;;;;;;10.07;5.30;;;;;;;;;;3576738;40;20395;-68
2021/07/23 11:40:25;;;;;;;6.30;5.15;;;;;;;;;;3576532;40;20387;-68
2021/07/23 11:42:53;;;;;;;8.30;4.87;;;;;;;;;;3576808;40;20384;-69
2021/07/23 11:45:20;;;;;;;7.57;5.05;;;;;;;;;;3575640;40;20424;-68
2021/07/23 11:47:47;;;;;;;6.82;4.63;;;;;;;;;;3576826;40;20383;-68
2021/07/23 11:50:15;;;;;;;6.78;5.35;;;;;;;;;;3566987;40;20400;-68
2021/07/23 11:52:42;;;;;;;7.68;4.72;;;;;;;;;;3576673;40;20768;-68
2021/07/23 11:55:09;;;;;;;6.90;5.10;;;;;;;;;;3575798;40;20388;-68
2021/07/23 11:57:36;;;;;;;6.15;4.70;;;;;;;;;;3564912;40;20398;-68
2021/07/23 12:00:03;;;;;;;6.57;4.95;;;;;;;;;;3573605;40;20403;-68
2021/07/23 12:02:30;;;;;;;7.18;4.78;;;;;;;;;;3565435;40;20405;-68
2021/07/23 12:05:06;;;;;;;6.15;4.70;;;;;;;;;;3564784;40;20390;-68
2021/07/23 12:07:34;;;;;;;6.20;5.18;;;;;;;;;;3562628;40;20813;-68
2021/07/23 12:10:01;;;;;;;6.30;5.20;;;;;;;;;;3567206;40;20385;-68
2021/07/23 12:12:28;;;;;;;6.35;5.35;;;;;;;;;;3566396;40;20377;-67
2021/07/23 12:14:54;;;;;;;5.90;5.13;;;;;;;;;;3566759;40;20393;-68
2021/07/23 12:17:21;;;;;;;8.23;5.38;;;;;;;;;;3565258;40;20394;-67
2021/07/23 12:19:54;;;;;;;7.50;5.32;;;;;;;;;;3563913;40;20481;-68
2021/07/23 12:22:20;;;;;;;7.03;4.85;;;;;;;;;;3564062;40;20375;-68
2021/07/23 12:24:48;;;;;;;7.32;4.90;;;;;;;;;;3565819;40;20401;-67
2021/07/23 12:27:15;;;;;;;6.70;5.37;;;;;;;;;;3565849;40;20763;-68
2021/07/23 12:29:42;;;;;;;5.22;4.72;;;;;;;;;;3563824;40;20378;-67
2021/07/23 12:32:11;;;;;;;5.82;4.82;;;;;;;;;;3565951;40;20369;-68
2021/07/23 12:34:38;;;;;;;7.63;5.13;;;;;;;;;;3564803;40;20386;-68
2021/07/23 12:37:15;;;;;;;6.40;5.20;;;;;;;;;;3560937;40;20440;-68
2021/07/23 12:39:50;;;;;;;6.85;4.78;;;;;;;;;;3574025;40;20650;-68
2021/07/23 12:42:17;;;;;;;6.18;4.88;;;;;;;;;;3564825;40;20413;-68
2021/07/23 12:44:43;;;;;;;6.47;5.07;;;;;;;;;;3565128;40;20390;-67
2021/07/23 12:47:15;;;;;;;6.07;5.13;;;;;;;;;;3566240;40;20421;-67
2021/07/23 12:49:41;;;;;;;6.63;5.30;;;;;;;;;;3571731;40;20401;-68
2021/07/23 12:52:08;;;;;;;6.05;4.70;;;;;;;;;;3573033;40;20621;-67
2021/07/23 12:54:38;;;;;;;6.53;4.75;;;;;;;;;;3565928;40;20432;-68
2021/07/23 12:57:19;;;;;;;7.88;5.45;;;;;;;;;;3573649;40;20390;-68
2021/07/23 12:59:45;;;;;;;6.27;5.40;;;;;;;;;;3566614;40;20472;-68
2021/07/23 13:02:13;;;;;;;8.45;4.80;;;;;;;;;;3573423;40;20822;-68
2021/07/23 13:04:39;;;;;;;9.35;5.45;;;;;;;;;;3568100;40;20392;-68
2021/07/23 13:07:06;;;;;;;7.97;4.80;;;;;;;;;;3565506;40;20400;-68
2021/07/23 13:09:33;;;;;;;5.70;5.10;;;;;;;;;;3566099;40;20384;-68
2021/07/23 13:12:00;;;;;;;7.20;4.93;;;;;;;;;;3566162;40;20370;-68
2021/07/23 13:14:28;;;;;;;8.68;5.28;;;;;;;;;;3565987;40;20381;-68
2021/07/23 13:16:54;;;;;;;6.03;5.13;;;;;;;;;;3566248;40;20401;-68
2021/07/23 13:19:20;;;;;;;6.25;5.10;;;;;;;;;;3565982;40;20401;-68
2021/07/23 13:21:48;;;;;;;5.32;4.82;;;;;;;;;;3573696;40;20806;-67
2021/07/23 13:24:15;;;;;;;5.43;4.90;;;;;;;;;;3573389;40;20532;-67
2021/07/23 13:26:41;;;;;;;6.65;5.40;;;;;;;;;;3566155;40;20398;-68
2021/07/23 13:29:08;;;;;;;6.93;5.25;;;;;;;;;;3566279;40;20374;-68
2021/07/23 13:31:36;;;;;;;7.50;5.65;;;;;;;;;;3564327;40;20775;-68
2021/07/23 13:34:02;;;;;;;7.03;5.65;;;;;;;;;;3563101;40;20420;-68
2021/07/23 13:36:33;;;;;;;10.15;5.90;;;;;;;;;;3566720;40;20389;-68
2021/07/23 13:39:03;;;;;;;6.15;5.28;;;;;;;;;;3566024;40;20373;-67
2021/07/23 13:41:32;;;;;;;34.78;9.40;;;;;;;;;;3565618;40;20475;-68
2021/07/23 13:43:59;;;;;;;7.37;5.93;;;;;;;;;;3565900;40;20390;-68
2021/07/23 13:46:25;;;;;;;6.13;5.47;;;;;;;;;;3564677;40;21008;-68
2021/07/23 13:48:53;;;;;;;8.05;5.07;;;;;;;;;;3565802;40;20417;-68
2021/07/23 13:51:20;;;;;;;7.70;5.43;;;;;;;;;;3565815;40;20432;-68
2021/07/23 13:53:46;;;;;;;6.32;5.53;;;;;;;;;;3566015;40;20751;-68
2021/07/23 13:56:12;;;;;;;5.93;5.03;;;;;;;;;;3565731;40;20663;-67
2021/07/23 13:58:38;;;;;;;5.90;5.40;;;;;;;;;;3565851;40;20405;-67
2021/07/23 14:01:05;;;;;;;6.07;5.43;;;;;;;;;;3566101;40;20394;-68
2021/07/23 14:03:31;;;;;;;6.25;5.53;;;;;;;;;;3575698;40;20481;-68
2021/07/23 14:05:59;;;;;;;7.00;5.45;;;;;;;;;;3575839;40;20779;-68
2021/07/23 14:08:25;;;;;;;7.28;5.35;;;;;;;;;;3575648;40;20403;-68
2021/07/23 14:10:51;;;;;;;7.20;5.40;;;;;;;;;;3575813;40;20384;-67
2021/07/23 14:13:17;;;;;;;8.15;5.50;;;;;;;;;;3576522;40;20414;-68
2021/07/23 14:15:45;;;;;;;6.00;5.50;;;;;;;;;;3567464;40;20392;-68
2021/07/23 14:18:11;;;;;;;6.50;5.30;;;;;;;;;;3568397;40;20395;-68
2021/07/23 14:20:37;;;;;;;7.93;5.57;;;;;;;;;;3577124;40;20408;-68
2021/07/23 14:23:05;;;;;;;7.07;5.60;;;;;;;;;;3576495;40;20387;-68
2021/07/23 14:25:31;;;;;;;8.93;5.90;;;;;;;;;;3567937;40;20404;-68
2021/07/23 14:27:58;;;;;;;6.17;5.53;;;;;;;;;;3567831;40;20392;-68
2021/07/23 14:30:24;;;;;;;6.47;5.30;;;;;;;;;;3574022;40;20384;-68
2021/07/23 14:32:51;;;;;;;6.03;5.35;;;;;;;;;;3567345;40;20384;-68
2021/07/23 14:35:17;;;;;;;5.70;5.00;;;;;;;;;;3577226;40;20380;-68
2021/07/23 14:37:43;;;;;;;5.53;5.03;;;;;;;;;;3579079;40;20468;-68